This is the latest recevied weather packets stored in our database for station/object DK6GC-10. If no packets are shown the sender has not sent any weather packets the latest 10 day(s).
| Time | Temp. | Humidity | Pressure | Rain* | Wind** | Luminosity | Snow |
|---|---|---|---|---|---|---|---|
| 1787391922 | 19.44° C | 74% | 1021.8 hPa | - | - | - | - |
| 1787391022 | 18.89° C | 75% | 1021.7 hPa | - | - | - | - |
| 1787390121 | 17.22° C | 83% | 1021.6 hPa | - | - | - | - |
| 1787389221 | 16.67° C | 86% | 1021.5 hPa | - | - | - | - |
| 1787388321 | 15.56° C | 92% | 1021.3 hPa | - | - | - | - |
| 1787387421 | 15° C | 95% | 1021.1 hPa | - | - | - | - |
| 1787386521 | 15° C | 95% | 1020.9 hPa | - | - | - | - |
| 1787385621 | 15° C | 95% | 1020.6 hPa | - | - | - | - |
| 1787384720 | 14.44° C | 95% | 1020.5 hPa | - | - | - | - |
| 1787383820 | 15° C | 95% | 1020.4 hPa | - | - | - | - |
| 1787382920 | 14.44° C | 95% | 1020.2 hPa | - | - | - | - |
| 1787382019 | 15° C | 96% | 1020.1 hPa | - | - | - | - |
| 1787381119 | 15° C | 95% | 1019.7 hPa | - | - | - | - |
| 1787380219 | 14.44° C | 96% | 1019.6 hPa | - | - | - | - |
| 1787379318 | 15° C | 96% | 1019.3 hPa | - | - | - | - |
| 1787378421 | 14.44° C | 98% | 1019.2 hPa | - | - | - | - |
| 1787377521 | 14.44° C | 98% | 1019 hPa | - | - | - | - |
| 1787376621 | 14.44° C | 99% | 1018.8 hPa | - | - | - | - |
| 1787375721 | 14.44° C | 100% | 1018.4 hPa | - | - | - | - |
| 1787374820 | 13.89° C | 100% | 1018.4 hPa | - | - | - | - |
| 1787373920 | 13.89° C | 100% | 1018.3 hPa | - | - | - | - |
| 1787373020 | 13.89° C | 100% | 1018.1 hPa | - | - | - | - |
| 1787372120 | 13.89° C | 100% | 1018 hPa | - | - | - | - |
| 1787371220 | 13.89° C | 100% | 1017.9 hPa | - | - | - | - |
| 1787370320 | 13.89° C | 100% | 1017.9 hPa | - | - | - | - |
* Rain since midnight (hover to see other rain measurements)
** Current wind speed in m/s (hover to see current wind gust speed)